createdAt,value
2016-08-29T00:00:55.089Z,0
2016-08-29T00:01:54.459Z,0
2016-08-29T00:02:55.168Z,0
2016-08-29T00:03:55.164Z,0
2016-08-29T00:04:55.148Z,0
2016-08-29T00:05:54.430Z,0
2016-08-29T00:06:54.430Z,0
2016-08-29T00:07:54.470Z,0
2016-08-29T00:08:54.406Z,0
2016-08-29T00:09:54.446Z,0
2016-08-29T00:10:55.092Z,0
2016-08-29T00:11:54.379Z,0
2016-08-29T00:12:54.388Z,0
2016-08-29T00:13:54.362Z,0
2016-08-29T00:14:54.351Z,0
2016-08-29T00:15:55.064Z,0
2016-08-29T00:16:54.336Z,0
2016-08-29T00:17:55.086Z,0
2016-08-29T00:18:55.031Z,0
2016-08-29T00:19:55.020Z,0
2016-08-29T00:20:55.015Z,0
2016-08-29T00:21:56.431Z,0
2016-08-29T00:22:54.291Z,0
2016-08-29T00:23:54.276Z,0
2016-08-29T00:24:54.275Z,0
2016-08-29T00:25:54.261Z,0
2016-08-29T00:26:55.671Z,0
2016-08-29T00:27:54.957Z,0
2016-08-29T00:28:54.955Z,0
2016-08-29T00:29:56.357Z,0
2016-08-29T00:30:54.930Z,0
2016-08-29T00:31:54.211Z,0
2016-08-29T00:32:54.918Z,0
2016-08-29T00:33:54.211Z,0
2016-08-29T00:34:54.192Z,0
2016-08-29T00:35:54.893Z,0
2016-08-29T00:36:54.880Z,0
2016-08-29T00:37:54.884Z,0
2016-08-29T00:38:54.917Z,0
2016-08-29T00:39:54.903Z,0
2016-08-29T00:40:56.269Z,0
2016-08-29T00:41:54.142Z,0
2016-08-29T00:42:54.116Z,0
2016-08-29T00:43:54.832Z,0
2016-08-29T00:44:54.103Z,0
2016-08-29T00:45:54.094Z,0
2016-08-29T00:46:54.806Z,0
2016-08-29T00:47:55.494Z,0
2016-08-29T00:48:54.067Z,0
2016-08-29T00:49:54.784Z,0
2016-08-29T00:50:54.053Z,0
2016-08-29T00:51:54.044Z,0
2016-08-29T00:52:54.041Z,0
2016-08-29T00:53:54.029Z,0
2016-08-29T00:54:54.732Z,0
2016-08-29T00:55:54.015Z,0
2016-08-29T00:56:54.707Z,0
2016-08-29T00:57:53.990Z,0
2016-08-29T00:58:54.701Z,0
2016-08-29T00:59:54.735Z,0
2016-08-29T01:00:53.973Z,0
2016-08-29T01:01:55.377Z,0
2016-08-29T01:02:53.955Z,0
2016-08-29T01:03:53.946Z,0
2016-08-29T01:04:53.942Z,0
2016-08-29T01:05:53.930Z,0
2016-08-29T01:06:53.917Z,0
2016-08-29T01:07:54.639Z,0
2016-08-29T01:08:53.901Z,0
2016-08-29T01:09:54.598Z,0
2016-08-29T01:10:53.891Z,0
2016-08-29T01:11:54.586Z,0
2016-08-29T01:12:53.880Z,0
2016-08-29T01:13:55.278Z,0
2016-08-29T01:14:53.849Z,0
2016-08-29T01:15:54.555Z,0
2016-08-29T01:16:54.546Z,0
2016-08-29T01:17:53.825Z,0
2016-08-29T01:18:53.816Z,0
2016-08-29T01:19:53.806Z,0
2016-08-29T01:20:53.809Z,0
2016-08-29T01:21:54.494Z,0
2016-08-29T01:22:54.486Z,0
2016-08-29T01:23:53.774Z,0
2016-08-29T01:24:54.469Z,0
2016-08-29T01:25:53.750Z,0
2016-08-29T01:26:53.751Z,0
2016-08-29T01:27:53.746Z,0
2016-08-29T01:28:53.725Z,0
2016-08-29T01:29:53.736Z,0
2016-08-29T01:30:53.725Z,0
2016-08-29T01:31:53.704Z,0
2016-08-29T01:32:53.695Z,0
2016-08-29T01:33:53.695Z,0
2016-08-29T01:34:54.385Z,0
2016-08-29T01:35:53.679Z,0
2016-08-29T01:36:53.661Z,0
2016-08-29T01:37:53.704Z,0
2016-08-29T01:38:53.656Z,0
2016-08-29T01:39:53.639Z,0
2016-08-29T01:40:53.629Z,0
2016-08-29T01:41:53.613Z,0
2016-08-29T01:42:53.609Z,0
2016-08-29T01:43:53.599Z,0
2016-08-29T01:44:53.592Z,0
2016-08-29T01:45:53.587Z,0
2016-08-29T01:46:53.580Z,0
2016-08-29T01:47:53.567Z,0
2016-08-29T01:48:54.272Z,0
2016-08-29T01:49:54.257Z,0
2016-08-29T01:50:53.533Z,0
2016-08-29T01:51:53.539Z,0
2016-08-29T01:52:54.227Z,0
2016-08-29T01:53:53.514Z,0
2016-08-29T01:54:53.516Z,0
2016-08-29T01:55:53.499Z,0
2016-08-29T01:56:54.896Z,0
2016-08-29T01:57:53.478Z,0
2016-08-29T01:58:54.182Z,0
2016-08-29T01:59:54.222Z,0
2016-08-29T02:00:54.886Z,0
2016-08-29T02:01:53.450Z,0
2016-08-29T02:02:53.436Z,0
2016-08-29T02:03:54.138Z,0
2016-08-29T02:04:53.418Z,0
2016-08-29T02:05:54.838Z,0
2016-08-29T02:06:53.398Z,0
2016-08-29T02:07:53.391Z,0
2016-08-29T02:08:53.394Z,0
2016-08-29T02:09:54.080Z,0
2016-08-29T02:10:54.778Z,0
2016-08-29T02:11:53.358Z,0
2016-08-29T02:12:53.341Z,0
2016-08-29T02:13:54.062Z,0
2016-08-29T02:14:53.323Z,0
2016-08-29T02:15:53.332Z,0
2016-08-29T02:16:53.309Z,0
2016-08-29T02:17:54.734Z,0
2016-08-29T02:18:54.718Z,0
2016-08-29T02:19:53.298Z,0
2016-08-29T02:20:53.276Z,0
2016-08-29T02:21:53.989Z,0
2016-08-29T02:22:53.266Z,0
2016-08-29T02:23:53.995Z,0
2016-08-29T02:24:53.239Z,0
2016-08-29T02:25:53.239Z,0
2016-08-29T02:26:53.272Z,0
2016-08-29T02:27:53.217Z,0
2016-08-29T02:28:53.206Z,0
2016-08-29T02:29:53.213Z,0
2016-08-29T02:30:53.180Z,0
2016-08-29T02:31:53.195Z,0
2016-08-29T02:32:53.891Z,0
2016-08-29T02:33:53.880Z,0
2016-08-29T02:34:54.569Z,0
2016-08-29T02:35:55.273Z,0
2016-08-29T02:36:53.126Z,0
2016-08-29T02:37:54.559Z,0
2016-08-29T02:38:53.113Z,0
2016-08-29T02:39:53.108Z,0
2016-08-29T02:40:53.168Z,0
2016-08-29T02:41:53.101Z,0
2016-08-29T02:42:53.074Z,0
2016-08-29T02:43:54.497Z,0
2016-08-29T02:44:53.064Z,0
2016-08-29T02:45:53.050Z,0
2016-08-29T02:46:53.752Z,0
2016-08-29T02:47:53.743Z,0
2016-08-29T02:48:53.024Z,0
2016-08-29T02:49:53.743Z,0
2016-08-29T02:50:53.011Z,0
2016-08-29T02:51:53.701Z,0
2016-08-29T02:52:53.701Z,0
2016-08-29T02:53:54.408Z,0
2016-08-29T02:54:53.673Z,0
2016-08-29T02:55:52.974Z,0
2016-08-29T02:56:52.972Z,0
2016-08-29T02:57:52.940Z,0
2016-08-29T02:58:55.191Z,0
2016-08-29T02:59:53.654Z,0
2016-08-29T03:00:52.922Z,0
2016-08-29T03:01:54.330Z,0
2016-08-29T03:02:52.903Z,0
2016-08-29T03:03:52.951Z,0
2016-08-29T03:04:52.892Z,0
2016-08-29T03:05:52.889Z,0
2016-08-29T03:06:54.288Z,0
2016-08-29T03:07:52.878Z,0
2016-08-29T03:08:52.858Z,0
2016-08-29T03:09:52.893Z,0
2016-08-29T03:10:53.539Z,0
2016-08-29T03:11:53.533Z,0
2016-08-29T03:12:52.854Z,0
2016-08-29T03:13:52.804Z,0
2016-08-29T03:14:53.522Z,0
2016-08-29T03:15:52.802Z,0
2016-08-29T03:16:53.496Z,0
2016-08-29T03:17:53.474Z,0
2016-08-29T03:18:52.768Z,0
2016-08-29T03:19:52.813Z,0
2016-08-29T03:20:52.742Z,0
2016-08-29T03:21:53.459Z,0
2016-08-29T03:22:54.142Z,0
2016-08-29T03:23:52.722Z,0
2016-08-29T03:24:52.719Z,0
2016-08-29T03:25:53.415Z,0
2016-08-29T03:26:52.698Z,0
2016-08-29T03:27:53.415Z,0
2016-08-29T03:28:53.388Z,0
2016-08-29T03:29:53.379Z,0
2016-08-29T03:30:52.690Z,0
2016-08-29T03:31:52.653Z,0
2016-08-29T03:32:52.662Z,0
2016-08-29T03:33:54.760Z,0
2016-08-29T03:34:53.331Z,0
2016-08-29T03:35:52.621Z,0
2016-08-29T03:36:52.609Z,0
2016-08-29T03:37:52.611Z,0
2016-08-29T03:38:53.300Z,0
2016-08-29T03:39:52.589Z,0
2016-08-29T03:40:53.279Z,0
2016-08-29T03:41:52.566Z,0
2016-08-29T03:42:52.555Z,0
2016-08-29T03:43:53.258Z,0
2016-08-29T03:44:53.247Z,0
2016-08-29T03:45:53.240Z,0
2016-08-29T03:46:53.230Z,0
2016-08-29T03:47:53.234Z,0
2016-08-29T03:48:53.922Z,0
2016-08-29T03:49:52.503Z,0
2016-08-29T03:50:52.486Z,0
2016-08-29T03:51:52.487Z,0
2016-08-29T03:52:53.890Z,0
2016-08-29T03:53:52.462Z,0
2016-08-29T03:54:52.459Z,0
2016-08-29T03:55:53.166Z,0
2016-08-29T03:56:53.148Z,0
2016-08-29T03:57:53.154Z,0
2016-08-29T03:58:53.124Z,0
2016-08-29T03:59:52.407Z,0
2016-08-29T04:00:52.397Z,0
2016-08-29T04:01:52.598Z,0
2016-08-29T04:02:52.387Z,0
2016-08-29T04:03:53.076Z,0
2016-08-29T04:04:53.077Z,0
2016-08-29T04:05:53.081Z,0
2016-08-29T04:06:53.770Z,0
2016-08-29T04:07:53.075Z,0
2016-08-29T04:08:52.354Z,0
2016-08-29T04:09:53.739Z,0
2016-08-29T04:10:53.028Z,0
2016-08-29T04:11:53.773Z,0
2016-08-29T04:12:53.010Z,0
2016-08-29T04:13:53.006Z,0
2016-08-29T04:14:52.285Z,0
2016-08-29T04:15:52.984Z,0
2016-08-29T04:16:53.031Z,0
2016-08-29T04:17:52.258Z,0
2016-08-29T04:18:52.971Z,0
2016-08-29T04:19:52.237Z,0
2016-08-29T04:20:52.947Z,0
2016-08-29T04:21:52.221Z,0
2016-08-29T04:22:52.216Z,0
2016-08-29T04:23:52.921Z,0
2016-08-29T04:24:53.747Z,0
2016-08-29T04:25:52.907Z,0
2016-08-29T04:26:52.891Z,0
2016-08-29T04:27:53.587Z,0
2016-08-29T04:28:52.166Z,0
2016-08-29T04:29:52.876Z,0
2016-08-29T04:30:52.140Z,0
2016-08-29T04:31:52.136Z,0
2016-08-29T04:32:52.838Z,0
2016-08-29T04:33:52.829Z,0
2016-08-29T04:34:52.110Z,0
2016-08-29T04:35:52.829Z,0
2016-08-29T04:36:53.351Z,0
2016-08-29T04:37:52.867Z,0
2016-08-29T04:38:53.525Z,0
2016-08-29T04:39:52.074Z,0
2016-08-29T04:40:52.761Z,0
2016-08-29T04:41:52.055Z,0
2016-08-29T04:42:52.039Z,5
2016-08-29T04:43:52.027Z,5
2016-08-29T04:44:52.018Z,5
2016-08-29T04:45:52.724Z,5
2016-08-29T04:46:52.011Z,5
2016-08-29T04:47:52.759Z,5
2016-08-29T04:48:52.009Z,5
2016-08-29T04:49:51.995Z,5
2016-08-29T04:50:51.978Z,5
2016-08-29T04:51:52.675Z,5
2016-08-29T04:52:51.968Z,10
2016-08-29T04:53:51.945Z,10
2016-08-29T04:54:51.931Z,10
2016-08-29T04:55:54.055Z,10
2016-08-29T04:56:52.637Z,10
2016-08-29T04:57:52.621Z,10
2016-08-29T04:58:52.619Z,15
2016-08-29T04:59:53.322Z,15
2016-08-29T05:00:53.699Z,15
2016-08-29T05:01:51.905Z,15
2016-08-29T05:02:51.918Z,15
2016-08-29T05:03:51.909Z,15
2016-08-29T05:04:52.555Z,15
2016-08-29T05:05:51.837Z,15
2016-08-29T05:06:52.594Z,20
2016-08-29T05:07:51.874Z,20
2016-08-29T05:08:51.810Z,20
2016-08-29T05:09:52.531Z,20
2016-08-29T05:10:51.814Z,20
2016-08-29T05:11:52.509Z,25
2016-08-29T05:12:53.196Z,25
2016-08-29T05:13:51.777Z,25
2016-08-29T05:14:53.905Z,25
2016-08-29T05:15:51.750Z,25
2016-08-29T05:16:51.750Z,20
2016-08-29T05:17:52.460Z,25
2016-08-29T05:18:51.730Z,25
2016-08-29T05:19:51.719Z,25
2016-08-29T05:20:52.416Z,30
2016-08-29T05:21:51.699Z,30
2016-08-29T05:22:51.691Z,30
2016-08-29T05:23:52.404Z,30
2016-08-29T05:24:51.676Z,25
2016-08-29T05:25:51.675Z,20
2016-08-29T05:26:52.366Z,25
2016-08-29T05:27:51.714Z,30
2016-08-29T05:28:51.640Z,30
2016-08-29T05:29:51.633Z,30
2016-08-29T05:30:51.633Z,30
2016-08-29T05:31:52.332Z,30
2016-08-29T05:32:51.617Z,30
2016-08-29T05:33:53.023Z,30
2016-08-29T05:34:52.297Z,35
2016-08-29T05:35:52.294Z,40
2016-08-29T05:36:52.277Z,40
2016-08-29T05:37:52.275Z,20
2016-08-29T05:38:52.259Z,10
2016-08-29T05:39:52.250Z,10
2016-08-29T05:40:51.539Z,5
2016-08-29T05:41:51.534Z,10
2016-08-29T05:42:52.989Z,10
2016-08-29T05:43:51.581Z,10
2016-08-29T05:44:52.211Z,10
2016-08-29T05:45:52.204Z,10
2016-08-29T05:46:51.483Z,10
2016-08-29T05:47:52.226Z,10
2016-08-29T05:48:52.211Z,10
2016-08-29T05:49:52.198Z,10
2016-08-29T05:50:52.174Z,10
2016-08-29T05:51:51.466Z,10
2016-08-29T05:52:52.153Z,15
2016-08-29T05:53:52.132Z,10
2016-08-29T05:54:51.426Z,15
2016-08-29T05:55:51.415Z,15
2016-08-29T05:56:51.403Z,15
2016-08-29T05:57:52.106Z,20
2016-08-29T05:58:51.383Z,20
2016-08-29T05:59:51.391Z,20
2016-08-29T06:00:52.124Z,20
2016-08-29T06:01:52.304Z,25
2016-08-29T06:02:52.060Z,20
2016-08-29T06:03:52.046Z,20
2016-08-29T06:04:52.753Z,20
2016-08-29T06:05:52.049Z,20
2016-08-29T06:06:52.016Z,20
2016-08-29T06:07:52.023Z,20
2016-08-29T06:08:51.296Z,20
2016-08-29T06:09:52.705Z,20
2016-08-29T06:10:51.272Z,20
2016-08-29T06:11:52.689Z,25
2016-08-29T06:12:51.986Z,30
2016-08-29T06:13:51.249Z,35
2016-08-29T06:14:51.248Z,30
2016-08-29T06:15:51.971Z,30
2016-08-29T06:16:52.643Z,30
2016-08-29T06:17:51.933Z,35
2016-08-29T06:18:51.229Z,30
2016-08-29T06:19:51.251Z,30
2016-08-29T06:20:51.248Z,35
2016-08-29T06:21:52.608Z,30
2016-08-29T06:22:51.181Z,25
2016-08-29T06:23:51.167Z,20
2016-08-29T06:24:51.870Z,20
2016-08-29T06:25:51.861Z,20
2016-08-29T06:26:51.847Z,25
2016-08-29T06:27:51.136Z,25
2016-08-29T06:28:51.833Z,25
2016-08-29T06:29:51.116Z,30
2016-08-29T06:30:51.828Z,30
2016-08-29T06:31:51.103Z,25
2016-08-29T06:32:51.808Z,20
2016-08-29T06:33:51.091Z,20
2016-08-29T06:34:51.078Z,20
2016-08-29T06:35:53.783Z,25
2016-08-29T06:36:51.066Z,35
2016-08-29T06:37:51.054Z,40
2016-08-29T06:38:51.048Z,45
2016-08-29T06:39:51.748Z,40
2016-08-29T06:40:51.748Z,35
2016-08-29T06:41:51.729Z,35
2016-08-29T06:42:51.729Z,35
2016-08-29T06:43:51.015Z,35
2016-08-29T06:44:51.711Z,35
2016-08-29T06:45:50.988Z,40
2016-08-29T06:46:50.983Z,40
2016-08-29T06:47:51.030Z,45
2016-08-29T06:48:51.673Z,40
2016-08-29T06:49:51.657Z,40
2016-08-29T06:50:50.943Z,40
2016-08-29T06:51:50.932Z,40
2016-08-29T06:52:50.959Z,40
2016-08-29T06:53:51.628Z,35
2016-08-29T06:54:51.633Z,30
2016-08-29T06:55:51.624Z,25
2016-08-29T06:56:51.595Z,25
2016-08-29T06:57:51.604Z,30
2016-08-29T06:58:51.596Z,30
2016-08-29T06:59:50.868Z,30
2016-08-29T07:00:52.999Z,35
2016-08-29T07:01:50.853Z,40
2016-08-29T07:02:51.543Z,45
2016-08-29T07:03:51.536Z,45
2016-08-29T07:04:51.548Z,45
2016-08-29T07:05:50.814Z,50
2016-08-29T07:06:50.811Z,45
2016-08-29T07:07:51.503Z,40
2016-08-29T07:08:51.543Z,40
2016-08-29T07:09:51.510Z,40
2016-08-29T07:10:50.769Z,50
2016-08-29T07:11:51.469Z,55
2016-08-29T07:12:52.185Z,60
2016-08-29T07:13:50.885Z,65
2016-08-29T07:14:51.456Z,60
2016-08-29T07:15:51.442Z,55
2016-08-29T07:16:51.428Z,60
2016-08-29T07:17:51.424Z,65
2016-08-29T07:18:50.706Z,75
2016-08-29T07:19:51.408Z,75
2016-08-29T07:20:50.689Z,75
2016-08-29T07:21:50.679Z,70
2016-08-29T07:22:52.088Z,65
2016-08-29T07:23:51.385Z,65
2016-08-29T07:24:52.073Z,75
2016-08-29T07:25:51.371Z,85
2016-08-29T07:26:50.643Z,85
2016-08-29T07:27:50.624Z,90
2016-08-29T07:28:50.628Z,90
2016-08-29T07:29:50.640Z,85
2016-08-29T07:30:50.610Z,75
2016-08-29T07:31:50.593Z,70
2016-08-29T07:32:50.590Z,65
2016-08-29T07:33:51.302Z,65
2016-08-29T07:34:50.566Z,65
2016-08-29T07:35:50.573Z,60
2016-08-29T07:36:50.543Z,55
2016-08-29T07:37:50.567Z,60
2016-08-29T07:38:50.551Z,65
2016-08-29T07:39:50.553Z,75
2016-08-29T07:40:51.292Z,80
2016-08-29T07:41:53.536Z,85
2016-08-29T07:42:51.226Z,90
2016-08-29T07:43:51.324Z,95
2016-08-29T07:44:50.488Z,110
2016-08-29T07:45:51.185Z,120
2016-08-29T07:46:50.507Z,135
2016-08-29T07:47:52.102Z,140
2016-08-29T07:48:52.646Z,145
2016-08-29T07:49:50.446Z,140
2016-08-29T07:50:50.468Z,130
2016-08-29T07:51:50.432Z,120
2016-08-29T07:52:50.416Z,115
2016-08-29T07:53:51.134Z,105
2016-08-29T07:54:50.406Z,100
2016-08-29T07:55:51.127Z,120
2016-08-29T07:56:51.795Z,120
2016-08-29T07:57:51.823Z,125
2016-08-29T07:58:51.998Z,130
2016-08-29T07:59:50.372Z,115
2016-08-29T08:00:51.060Z,110
2016-08-29T08:01:52.669Z,95
2016-08-29T08:02:51.050Z,90
2016-08-29T08:03:50.324Z,95
2016-08-29T08:04:51.054Z,125
2016-08-29T08:05:52.458Z,150
2016-08-29T08:06:51.735Z,170
2016-08-29T08:07:51.729Z,190
2016-08-29T08:08:50.281Z,205
2016-08-29T08:09:50.287Z,200
2016-08-29T08:10:50.982Z,180
2016-08-29T08:11:51.677Z,160
2016-08-29T08:12:50.262Z,155
2016-08-29T08:13:50.249Z,145
2016-08-29T08:14:51.652Z,140
2016-08-29T08:15:52.373Z,145
2016-08-29T08:16:50.224Z,160
2016-08-29T08:17:52.395Z,170
2016-08-29T08:18:51.632Z,185
2016-08-29T08:19:51.116Z,190
2016-08-29T08:20:50.183Z,200
2016-08-29T08:21:50.968Z,210
2016-08-29T08:22:50.890Z,205
2016-08-29T08:23:50.180Z,185
2016-08-29T08:24:50.184Z,195
2016-08-29T08:25:51.605Z,220
2016-08-29T08:26:50.872Z,245
2016-08-29T08:27:50.999Z,250
2016-08-29T08:28:50.851Z,240
2016-08-29T08:29:51.533Z,230
2016-08-29T08:30:50.822Z,210
2016-08-29T08:31:51.518Z,205
2016-08-29T08:32:50.108Z,200
2016-08-29T08:33:50.805Z,230
2016-08-29T08:34:50.800Z,205
2016-08-29T08:35:50.591Z,190
2016-08-29T08:36:50.072Z,195
2016-08-29T08:37:51.497Z,200
2016-08-29T08:38:50.762Z,215
2016-08-29T08:39:50.799Z,215
2016-08-29T08:40:50.787Z,250
2016-08-29T08:41:50.048Z,270
2016-08-29T08:42:50.731Z,285
2016-08-29T08:43:50.737Z,275
2016-08-29T08:44:50.009Z,260
2016-08-29T08:45:50.728Z,260
2016-08-29T08:46:50.046Z,280
2016-08-29T08:47:50.712Z,250
2016-08-29T08:48:50.719Z,230
2016-08-29T08:49:50.699Z,255
2016-08-29T08:50:49.976Z,250
2016-08-29T08:51:50.669Z,235
2016-08-29T08:52:51.364Z,215
2016-08-29T08:53:52.078Z,210
2016-08-29T08:54:50.650Z,200
2016-08-29T08:55:49.932Z,175
2016-08-29T08:56:50.629Z,140
2016-08-29T08:57:50.628Z,130
2016-08-29T08:58:51.331Z,125
2016-08-29T08:59:50.617Z,140
2016-08-29T09:00:49.909Z,180
2016-08-29T09:01:50.612Z,205
2016-08-29T09:02:51.300Z,250
2016-08-29T09:03:50.577Z,300
2016-08-29T09:04:50.602Z,325
2016-08-29T09:05:50.577Z,305
2016-08-29T09:06:50.566Z,295
2016-08-29T09:07:49.857Z,260
2016-08-29T09:08:50.536Z,235
2016-08-29T09:09:50.592Z,230
2016-08-29T09:10:49.826Z,250
2016-08-29T09:11:50.521Z,255
2016-08-29T09:12:49.819Z,260
2016-08-29T09:13:49.811Z,290
2016-08-29T09:14:49.799Z,285
2016-08-29T09:15:50.505Z,255
2016-08-29T09:16:50.506Z,210
2016-08-29T09:17:50.486Z,205
2016-08-29T09:18:49.765Z,225
2016-08-29T09:19:50.472Z,230
2016-08-29T09:20:49.778Z,210
2016-08-29T09:21:49.754Z,170
2016-08-29T09:22:51.875Z,150
2016-08-29T09:23:50.443Z,145
2016-08-29T09:24:49.730Z,150
2016-08-29T09:25:51.163Z,145
2016-08-29T09:26:51.145Z,160
2016-08-29T09:27:51.182Z,180
2016-08-29T09:28:50.413Z,195
2016-08-29T09:29:49.702Z,190
2016-08-29T09:30:49.704Z,175
2016-08-29T09:31:49.769Z,160
2016-08-29T09:32:49.683Z,160
2016-08-29T09:33:49.684Z,175
2016-08-29T09:34:49.684Z,190
2016-08-29T09:35:49.665Z,210
2016-08-29T09:36:50.363Z,245
2016-08-29T09:37:49.668Z,285
2016-08-29T09:38:49.650Z,330
2016-08-29T09:39:50.334Z,370
2016-08-29T09:40:49.622Z,425
2016-08-29T09:41:51.033Z,440
2016-08-29T09:42:49.608Z,455
2016-08-29T09:43:50.314Z,450
2016-08-29T09:44:50.312Z,465
2016-08-29T09:45:50.307Z,440
2016-08-29T09:46:49.591Z,380
2016-08-29T09:47:49.612Z,305
2016-08-29T09:48:49.569Z,245
2016-08-29T09:49:49.571Z,240
2016-08-29T09:50:49.566Z,230
2016-08-29T09:51:49.549Z,230
2016-08-29T09:52:49.542Z,225
2016-08-29T09:53:49.543Z,265
2016-08-29T09:54:49.535Z,315
2016-08-29T09:55:50.241Z,305
2016-08-29T09:56:50.254Z,275
2016-08-29T09:57:50.236Z,250
2016-08-29T09:58:49.524Z,250
2016-08-29T09:59:49.502Z,240
2016-08-29T10:00:50.922Z,240
2016-08-29T10:01:49.709Z,270
2016-08-29T10:02:49.488Z,325
2016-08-29T10:03:50.197Z,460
2016-08-29T10:04:50.180Z,495
2016-08-29T10:05:49.465Z,460
2016-08-29T10:06:49.467Z,485
2016-08-29T10:07:50.157Z,420
2016-08-29T10:08:50.871Z,410
2016-08-29T10:09:50.156Z,395
2016-08-29T10:10:50.156Z,375
2016-08-29T10:11:50.849Z,370
2016-08-29T10:12:50.134Z,355
2016-08-29T10:13:49.424Z,385
2016-08-29T10:14:50.130Z,440
2016-08-29T10:15:49.414Z,430
2016-08-29T10:16:49.396Z,445
2016-08-29T10:17:50.812Z,435
2016-08-29T10:18:49.389Z,400
2016-08-29T10:19:49.392Z,395
2016-08-29T10:20:50.089Z,390
2016-08-29T10:21:50.082Z,380
2016-08-29T10:22:49.370Z,350
2016-08-29T10:23:50.075Z,290
2016-08-29T10:24:50.060Z,310
2016-08-29T10:25:49.344Z,425
2016-08-29T10:26:49.345Z,520
2016-08-29T10:27:49.341Z,435
2016-08-29T10:28:49.335Z,350
2016-08-29T10:29:50.034Z,320
2016-08-29T10:30:49.318Z,330
2016-08-29T10:31:50.042Z,350
2016-08-29T10:32:50.072Z,370
2016-08-29T10:33:49.349Z,380
2016-08-29T10:34:50.008Z,325
2016-08-29T10:35:50.807Z,360
2016-08-29T10:36:49.281Z,365
2016-08-29T10:37:50.694Z,370
2016-08-29T10:38:49.280Z,365
2016-08-29T10:39:49.290Z,380
2016-08-29T10:40:50.697Z,400
2016-08-29T10:41:49.261Z,395
2016-08-29T10:42:50.675Z,395
2016-08-29T10:43:49.247Z,370
2016-08-29T10:44:49.948Z,415
2016-08-29T10:45:49.230Z,455
2016-08-29T10:46:49.228Z,420
2016-08-29T10:47:49.927Z,405
2016-08-29T10:48:49.224Z,470
2016-08-29T10:49:49.211Z,435
2016-08-29T10:50:49.206Z,435
2016-08-29T10:51:49.914Z,495
2016-08-29T10:52:49.924Z,535
2016-08-29T10:53:49.188Z,420
2016-08-29T10:54:49.917Z,320
2016-08-29T10:55:50.685Z,285
2016-08-29T10:56:49.882Z,250
2016-08-29T10:57:49.181Z,265
2016-08-29T10:58:49.881Z,355
2016-08-29T10:59:49.885Z,395
2016-08-29T11:00:49.571Z,595
2016-08-29T11:01:49.155Z,780
2016-08-29T11:02:49.913Z,425
2016-08-29T11:03:49.847Z,550
2016-08-29T11:04:49.859Z,550
2016-08-29T11:05:49.162Z,430
2016-08-29T11:06:49.878Z,290
2016-08-29T11:07:50.117Z,415
2016-08-29T11:08:49.132Z,520
2016-08-29T11:09:49.818Z,540
2016-08-29T11:10:49.821Z,350
2016-08-29T11:11:50.539Z,270
2016-08-29T11:12:49.804Z,270
2016-08-29T11:13:49.805Z,285
2016-08-29T11:14:50.522Z,305
2016-08-29T11:15:50.498Z,335
2016-08-29T11:16:50.497Z,300
2016-08-29T11:17:50.498Z,225
2016-08-29T11:18:49.786Z,175
2016-08-29T11:19:49.062Z,145
2016-08-29T11:20:49.792Z,125
2016-08-29T11:21:49.768Z,115
2016-08-29T11:22:49.068Z,105
2016-08-29T11:23:49.051Z,95
2016-08-29T11:24:49.094Z,95
2016-08-29T11:25:49.741Z,85
2016-08-29T11:26:49.045Z,80
2016-08-29T11:27:49.777Z,80
2016-08-29T11:28:49.788Z,85
2016-08-29T11:29:49.723Z,85
2016-08-29T11:30:49.715Z,85
2016-08-29T11:31:49.708Z,100
2016-08-29T11:32:49.699Z,110
2016-08-29T11:33:48.996Z,130
2016-08-29T11:34:48.982Z,160
2016-08-29T11:35:48.972Z,190
2016-08-29T11:36:48.980Z,230
2016-08-29T11:37:49.668Z,275
2016-08-29T11:38:48.954Z,310
2016-08-29T11:39:49.664Z,345
2016-08-29T11:40:48.940Z,325
2016-08-29T11:41:48.950Z,255
2016-08-29T11:42:48.937Z,210
2016-08-29T11:43:50.379Z,180
2016-08-29T11:44:48.920Z,175
2016-08-29T11:45:49.629Z,175
2016-08-29T11:46:48.944Z,190
2016-08-29T11:47:49.615Z,195
2016-08-29T11:48:48.911Z,220
2016-08-29T11:49:49.616Z,225
2016-08-29T11:50:48.892Z,240
2016-08-29T11:51:48.886Z,240
2016-08-29T11:52:48.880Z,240
2016-08-29T11:53:50.292Z,260
2016-08-29T11:54:48.863Z,280
2016-08-29T11:55:49.561Z,305
2016-08-29T11:56:48.857Z,320
2016-08-29T11:57:48.843Z,350
2016-08-29T11:58:48.850Z,435
2016-08-29T11:59:48.838Z,725
2016-08-29T12:00:50.257Z,1580
2016-08-29T12:01:49.233Z,1155
2016-08-29T12:02:48.833Z,750
2016-08-29T12:03:48.816Z,1080
2016-08-29T12:04:48.818Z,670
2016-08-29T12:05:48.820Z,550
2016-08-29T12:06:48.801Z,540
2016-08-29T12:07:48.798Z,415
2016-08-29T12:08:49.504Z,370
2016-08-29T12:09:48.783Z,335
2016-08-29T12:10:50.205Z,300
2016-08-29T12:11:48.782Z,265
2016-08-29T12:12:48.778Z,240
2016-08-29T12:13:49.479Z,220
2016-08-29T12:14:48.771Z,220
2016-08-29T12:15:48.757Z,230
2016-08-29T12:16:50.172Z,240
2016-08-29T12:17:49.452Z,245
2016-08-29T12:18:48.746Z,270
2016-08-29T12:19:48.788Z,295
2016-08-29T12:20:48.735Z,330
2016-08-29T12:21:48.725Z,370
2016-08-29T12:22:49.439Z,415
2016-08-29T12:23:49.429Z,465
2016-08-29T12:24:49.424Z,500
2016-08-29T12:25:50.147Z,580
2016-08-29T12:26:48.714Z,715
2016-08-29T12:27:49.408Z,530
2016-08-29T12:28:48.694Z,575
2016-08-29T12:29:48.698Z,365
2016-08-29T12:30:48.684Z,330
2016-08-29T12:31:49.387Z,305
2016-08-29T12:32:50.106Z,310
2016-08-29T12:33:49.376Z,315
2016-08-29T12:34:50.079Z,335
2016-08-29T12:35:49.372Z,350
2016-08-29T12:36:48.656Z,365
2016-08-29T12:37:48.657Z,380
2016-08-29T12:38:48.683Z,385
2016-08-29T12:39:48.642Z,395
2016-08-29T12:40:49.392Z,430
2016-08-29T12:41:48.639Z,495
2016-08-29T12:42:48.648Z,580
2016-08-29T12:43:49.327Z,540
2016-08-29T12:44:48.624Z,485
2016-08-29T12:45:48.665Z,465
2016-08-29T12:46:49.310Z,470
2016-08-29T12:47:48.614Z,455
2016-08-29T12:48:50.065Z,415
2016-08-29T12:49:49.299Z,405
2016-08-29T12:50:48.602Z,430
2016-08-29T12:51:48.586Z,440
2016-08-29T12:52:48.577Z,410
2016-08-29T12:53:49.292Z,395
2016-08-29T12:54:49.289Z,385
2016-08-29T12:55:48.575Z,390
2016-08-29T12:56:48.565Z,450
2016-08-29T12:57:49.982Z,400
2016-08-29T12:58:49.996Z,360
2016-08-29T12:59:49.965Z,345
2016-08-29T13:00:48.550Z,340
2016-08-29T13:01:49.253Z,360
2016-08-29T13:02:48.541Z,390
2016-08-29T13:03:49.238Z,450
2016-08-29T13:04:48.527Z,470
2016-08-29T13:05:48.531Z,470
2016-08-29T13:06:49.931Z,475
2016-08-29T13:07:49.217Z,465
2016-08-29T13:08:49.213Z,455
2016-08-29T13:09:50.631Z,405
2016-08-29T13:10:48.501Z,315
2016-08-29T13:11:49.209Z,265
2016-08-29T13:12:49.204Z,275
2016-08-29T13:13:49.200Z,255
2016-08-29T13:14:48.477Z,300
2016-08-29T13:15:48.474Z,405
2016-08-29T13:16:48.520Z,435
2016-08-29T13:17:49.175Z,580
2016-08-29T13:18:48.470Z,445
2016-08-29T13:19:49.166Z,445
2016-08-29T13:20:49.166Z,445
2016-08-29T13:21:48.470Z,445
2016-08-29T13:22:49.209Z,385
2016-08-29T13:23:49.148Z,380
2016-08-29T13:24:48.445Z,360
2016-08-29T13:25:49.200Z,345
2016-08-29T13:26:49.140Z,305
2016-08-29T13:27:49.134Z,270
2016-08-29T13:28:48.415Z,245
2016-08-29T13:29:49.133Z,250
2016-08-29T13:30:49.118Z,265
2016-08-29T13:31:48.420Z,255
2016-08-29T13:32:49.115Z,250
2016-08-29T13:33:49.098Z,280
2016-08-29T13:34:49.097Z,325
2016-08-29T13:35:49.130Z,365
2016-08-29T13:36:49.847Z,380
2016-08-29T13:37:49.075Z,385
2016-08-29T13:38:49.139Z,380
2016-08-29T13:39:49.094Z,440
2016-08-29T13:40:48.361Z,620
2016-08-29T13:41:49.066Z,1625
2016-08-29T13:42:49.817Z,835
2016-08-29T13:43:48.363Z,680
2016-08-29T13:44:49.053Z,520
2016-08-29T13:45:48.338Z,635
2016-08-29T13:46:49.751Z,580
2016-08-29T13:47:49.743Z,430
2016-08-29T13:48:48.316Z,435
2016-08-29T13:49:48.318Z,1705
2016-08-29T13:50:48.326Z,435
2016-08-29T13:51:49.027Z,290
2016-08-29T13:52:49.015Z,215
2016-08-29T13:53:49.715Z,170
2016-08-29T13:54:49.008Z,155
2016-08-29T13:55:48.300Z,150
2016-08-29T13:56:48.293Z,160
2016-08-29T13:57:48.300Z,160
2016-08-29T13:58:48.997Z,180
2016-08-29T13:59:48.988Z,215
2016-08-29T14:00:49.002Z,270
2016-08-29T14:01:49.181Z,315
2016-08-29T14:02:49.679Z,330
2016-08-29T14:03:48.265Z,340
2016-08-29T14:04:48.257Z,355
2016-08-29T14:05:48.280Z,330
2016-08-29T14:06:48.966Z,340
2016-08-29T14:07:48.961Z,315
2016-08-29T14:08:48.242Z,300
2016-08-29T14:09:48.239Z,295
2016-08-29T14:10:48.258Z,290
2016-08-29T14:11:48.240Z,285
2016-08-29T14:12:48.239Z,305